createdAt,value
2023-05-14T00:00:45.623Z,0.00
2023-05-14T00:01:45.604Z,0.00
2023-05-14T00:02:45.688Z,0.00
2023-05-14T00:03:45.690Z,0.00
2023-05-14T00:04:45.568Z,0.00
2023-05-14T00:05:45.550Z,0.00
2023-05-14T00:06:45.525Z,0.00
2023-05-14T00:07:45.537Z,0.00
2023-05-14T00:08:45.510Z,0.00
2023-05-14T00:09:45.497Z,0.00
2023-05-14T00:10:45.505Z,0.00
2023-05-14T00:11:45.480Z,0.00
2023-05-14T00:12:45.466Z,0.00
2023-05-14T00:13:45.474Z,0.00
2023-05-14T00:14:45.441Z,0.00
2023-05-14T00:15:45.509Z,0.00
2023-05-14T00:16:45.441Z,0.00
2023-05-14T00:17:45.462Z,0.00
2023-05-14T00:18:45.452Z,0.00
2023-05-14T00:19:45.417Z,0.00
2023-05-14T00:20:45.391Z,0.00
2023-05-14T00:21:45.387Z,0.00
2023-05-14T00:22:45.439Z,0.00
2023-05-14T00:23:45.409Z,0.00
2023-05-14T00:24:45.332Z,0.00
2023-05-14T00:25:45.364Z,0.00
2023-05-14T00:26:45.347Z,0.00
2023-05-14T00:27:45.351Z,0.00
2023-05-14T00:28:45.294Z,0.00
2023-05-14T00:29:45.296Z,0.00
2023-05-14T00:30:46.216Z,0.00
2023-05-14T00:31:45.352Z,0.00
2023-05-14T00:32:45.286Z,0.00
2023-05-14T00:33:45.242Z,0.00
2023-05-14T00:34:45.252Z,0.00
2023-05-14T00:35:45.251Z,0.00
2023-05-14T00:36:45.227Z,0.00
2023-05-14T00:37:45.204Z,0.00
2023-05-14T00:38:45.182Z,0.00
2023-05-14T00:39:45.176Z,0.00
2023-05-14T00:40:45.180Z,0.00
2023-05-14T00:41:45.158Z,0.00
2023-05-14T00:42:45.188Z,0.00
2023-05-14T00:43:45.142Z,0.00
2023-05-14T00:44:45.122Z,0.00
2023-05-14T00:45:45.129Z,0.00
2023-05-14T00:46:45.152Z,0.00
2023-05-14T00:47:45.113Z,0.00
2023-05-14T00:48:45.078Z,0.00
2023-05-14T00:49:45.069Z,0.00
2023-05-14T00:50:45.075Z,0.00
2023-05-14T00:51:45.058Z,0.00
2023-05-14T00:52:45.044Z,0.00
2023-05-14T00:53:45.025Z,0.00
2023-05-14T00:54:45.014Z,0.00
2023-05-14T00:55:45.021Z,0.00
2023-05-14T00:56:44.989Z,0.00
2023-05-14T00:57:45.025Z,0.00
2023-05-14T00:58:44.990Z,0.00
2023-05-14T00:59:44.977Z,0.00
2023-05-14T01:00:44.978Z,0.00
2023-05-14T01:01:44.941Z,0.00
2023-05-14T01:02:45.031Z,0.00
2023-05-14T01:03:45.023Z,0.00
2023-05-14T01:04:44.926Z,0.00
2023-05-14T01:05:44.910Z,0.00
2023-05-14T01:06:51.932Z,0.00
2023-05-14T01:07:44.900Z,0.00
2023-05-14T01:08:44.856Z,0.00
2023-05-14T01:09:44.857Z,0.00
2023-05-14T01:10:44.865Z,0.00
2023-05-14T01:11:44.824Z,0.00
2023-05-14T01:12:44.824Z,0.00
2023-05-14T01:13:44.807Z,0.00
2023-05-14T01:14:44.825Z,0.00
2023-05-14T01:15:44.790Z,0.00
2023-05-14T01:16:44.850Z,0.00
2023-05-14T01:17:44.817Z,0.00
2023-05-14T01:18:44.786Z,0.00
2023-05-14T01:19:44.809Z,0.00
2023-05-14T01:20:44.751Z,0.00
2023-05-14T01:21:44.722Z,0.00
2023-05-14T01:22:44.703Z,0.00
2023-05-14T01:23:44.710Z,0.00
2023-05-14T01:24:44.686Z,0.00
2023-05-14T01:25:44.691Z,0.00
2023-05-14T01:26:44.690Z,0.00
2023-05-14T01:27:44.656Z,0.00
2023-05-14T01:28:44.640Z,0.00
2023-05-14T01:29:44.653Z,0.00
2023-05-14T01:30:44.638Z,0.00
2023-05-14T01:31:44.676Z,0.00
2023-05-14T01:32:44.648Z,0.00
2023-05-14T01:33:44.629Z,0.00
2023-05-14T01:34:44.576Z,0.00
2023-05-14T01:35:44.583Z,0.00
2023-05-14T01:36:44.557Z,0.00
2023-05-14T01:37:44.545Z,0.00
2023-05-14T01:38:44.549Z,0.00
2023-05-14T01:39:44.527Z,0.00
2023-05-14T01:40:44.518Z,0.00
2023-05-14T01:41:44.495Z,0.00
2023-05-14T01:42:44.566Z,0.00
2023-05-14T01:43:44.474Z,0.00
2023-05-14T01:44:44.459Z,0.00
2023-05-14T01:45:44.501Z,0.00
2023-05-14T01:46:44.479Z,0.00
2023-05-14T01:47:44.474Z,0.00
2023-05-14T01:48:44.423Z,0.00
2023-05-14T01:49:44.431Z,0.00
2023-05-14T01:50:44.404Z,0.00
2023-05-14T01:51:44.405Z,0.00
2023-05-14T01:52:44.379Z,0.00
2023-05-14T01:53:44.371Z,0.00
2023-05-14T01:54:44.373Z,0.00
2023-05-14T01:55:44.374Z,0.00
2023-05-14T01:56:44.331Z,0.00
2023-05-14T01:57:44.317Z,0.00
2023-05-14T01:58:44.356Z,0.00
2023-05-14T01:59:44.739Z,0.00
2023-05-14T02:00:44.315Z,0.00
2023-05-14T02:01:44.341Z,0.00
2023-05-14T02:02:44.286Z,0.00
2023-05-14T02:03:44.280Z,0.00
2023-05-14T02:04:44.267Z,0.00
2023-05-14T02:05:44.243Z,0.00
2023-05-14T02:06:44.217Z,0.00
2023-05-14T02:07:44.213Z,0.00
2023-05-14T02:08:44.194Z,0.00
2023-05-14T02:09:44.199Z,0.00
2023-05-14T02:10:44.178Z,0.00
2023-05-14T02:11:44.215Z,0.00
2023-05-14T02:12:44.156Z,0.00
2023-05-14T02:13:44.147Z,0.00
2023-05-14T02:14:44.741Z,0.00
2023-05-14T02:15:44.130Z,0.00
2023-05-14T02:16:44.120Z,0.00
2023-05-14T02:17:44.150Z,0.00
2023-05-14T02:18:44.144Z,0.00
2023-05-14T02:19:44.078Z,0.00
2023-05-14T02:20:44.070Z,0.00
2023-05-14T02:21:44.071Z,0.00
2023-05-14T02:22:44.063Z,0.00
2023-05-14T02:23:44.032Z,0.00
2023-05-14T02:24:44.026Z,0.00
2023-05-14T02:25:44.058Z,0.00
2023-05-14T02:26:44.027Z,0.00
2023-05-14T02:27:44.008Z,0.00
2023-05-14T02:28:43.982Z,0.00
2023-05-14T02:29:43.975Z,0.00
2023-05-14T02:30:43.996Z,0.00
2023-05-14T02:31:43.985Z,0.00
2023-05-14T02:32:44.042Z,0.00
2023-05-14T02:33:43.963Z,0.00
2023-05-14T02:34:43.932Z,0.00
2023-05-14T02:35:43.916Z,0.00
2023-05-14T02:36:43.899Z,0.00
2023-05-14T02:37:43.878Z,0.00
2023-05-14T02:38:43.879Z,0.00
2023-05-14T02:39:43.886Z,0.00
2023-05-14T02:40:43.855Z,0.00
2023-05-14T02:41:43.850Z,0.00
2023-05-14T02:42:43.859Z,0.00
2023-05-14T02:43:43.843Z,0.00
2023-05-14T02:44:43.825Z,0.00
2023-05-14T02:45:43.798Z,0.00
2023-05-14T02:46:43.875Z,0.00
2023-05-14T02:47:43.860Z,0.00
2023-05-14T02:48:43.776Z,0.00
2023-05-14T02:49:43.781Z,0.00
2023-05-14T02:50:43.763Z,0.00
2023-05-14T02:51:43.747Z,0.00
2023-05-14T02:52:43.726Z,0.00
2023-05-14T02:53:43.707Z,0.00
2023-05-14T02:54:43.694Z,0.00
2023-05-14T02:55:43.698Z,0.00
2023-05-14T02:56:43.691Z,0.00
2023-05-14T02:57:43.667Z,0.00
2023-05-14T02:58:43.655Z,0.00
2023-05-14T02:59:43.667Z,0.00
2023-05-14T03:00:43.721Z,0.00
2023-05-14T03:01:43.720Z,0.00
2023-05-14T03:02:43.864Z,0.00
2023-05-14T03:03:43.607Z,0.00
2023-05-14T03:04:43.597Z,0.00
2023-05-14T03:05:43.610Z,0.00
2023-05-14T03:06:43.588Z,0.00
2023-05-14T03:10:27.663Z,0.00
2023-05-14T03:11:27.639Z,0.00
2023-05-14T03:12:27.626Z,0.00
2023-05-14T03:13:27.642Z,0.00
2023-05-14T03:14:27.597Z,0.00
2023-05-14T03:15:27.584Z,0.00
2023-05-14T03:16:27.663Z,0.00
2023-05-14T03:17:27.628Z,0.00
2023-05-14T03:18:27.584Z,0.00
2023-05-14T03:19:27.541Z,0.00
2023-05-14T03:20:27.532Z,0.00
2023-05-14T03:21:27.555Z,0.00
2023-05-14T03:22:27.556Z,0.00
2023-05-14T03:23:27.499Z,0.00
2023-05-14T03:24:27.509Z,0.00
2023-05-14T03:25:27.526Z,0.00
2023-05-14T03:26:27.479Z,0.00
2023-05-14T03:27:27.495Z,0.00
2023-05-14T03:28:27.446Z,0.00
2023-05-14T03:29:27.443Z,5.62
2023-05-14T03:30:27.541Z,5.62
2023-05-14T03:31:27.523Z,5.62
2023-05-14T03:32:27.441Z,5.62
2023-05-14T03:33:27.425Z,5.62
2023-05-14T03:34:27.382Z,5.62
2023-05-14T03:35:27.366Z,5.62
2023-05-14T03:36:27.373Z,5.62
2023-05-14T03:37:27.355Z,11.25
2023-05-14T03:38:27.377Z,11.25
2023-05-14T03:39:27.330Z,11.25
2023-05-14T03:40:27.334Z,11.25
2023-05-14T03:41:27.330Z,11.25
2023-05-14T03:42:27.296Z,11.25
2023-05-14T03:43:27.281Z,16.88
2023-05-14T03:44:27.281Z,16.88
2023-05-14T03:45:27.290Z,16.88
2023-05-14T03:46:27.299Z,16.88
2023-05-14T03:47:27.260Z,16.88
2023-05-14T03:48:27.381Z,22.50
2023-05-14T03:49:27.213Z,22.50
2023-05-14T03:50:27.220Z,22.50
2023-05-14T03:51:27.195Z,22.50
2023-05-14T03:52:27.200Z,28.12
2023-05-14T03:53:27.170Z,28.12
2023-05-14T03:54:27.193Z,28.12
2023-05-14T03:55:27.147Z,28.12
2023-05-14T03:56:27.148Z,33.75
2023-05-14T03:57:27.153Z,33.75
2023-05-14T03:58:27.117Z,33.75
2023-05-14T03:59:27.118Z,33.75
2023-05-14T04:00:27.295Z,39.38
2023-05-14T04:01:27.093Z,39.38
2023-05-14T04:02:27.194Z,39.38
2023-05-14T04:03:27.248Z,45.00
2023-05-14T04:04:27.073Z,45.00
2023-05-14T04:05:27.058Z,45.00
2023-05-14T04:06:27.046Z,45.00
2023-05-14T04:07:27.043Z,50.62
2023-05-14T04:08:27.006Z,50.62
2023-05-14T04:09:27.017Z,50.62
2023-05-14T04:10:27.039Z,56.25
2023-05-14T04:11:26.967Z,56.25
2023-05-14T04:12:26.961Z,56.25
2023-05-14T04:13:26.947Z,61.88
2023-05-14T04:14:26.952Z,61.88
2023-05-14T04:15:26.986Z,61.88
2023-05-14T04:16:26.940Z,67.50
2023-05-14T04:17:26.995Z,67.50
2023-05-14T04:18:26.956Z,67.50
2023-05-14T04:19:26.881Z,73.12
2023-05-14T04:20:26.876Z,73.12
2023-05-14T04:21:26.857Z,73.12
2023-05-14T04:22:26.849Z,78.75
2023-05-14T04:23:26.855Z,78.75
2023-05-14T04:24:26.869Z,84.38
2023-05-14T04:25:26.808Z,84.38
2023-05-14T04:26:26.831Z,84.38
2023-05-14T04:27:26.835Z,90.00
2023-05-14T04:28:26.784Z,90.00
2023-05-14T04:29:26.773Z,90.00
2023-05-14T04:30:26.776Z,95.62
2023-05-14T04:31:26.795Z,95.62
2023-05-14T04:32:26.780Z,95.62
2023-05-14T04:33:26.732Z,101.25
2023-05-14T04:34:26.729Z,101.25
2023-05-14T04:35:26.706Z,106.88
2023-05-14T04:36:26.701Z,106.88
2023-05-14T04:37:26.695Z,106.88
2023-05-14T04:38:26.663Z,112.50
2023-05-14T04:39:26.660Z,112.50
2023-05-14T04:40:26.982Z,112.50
2023-05-14T04:41:26.643Z,118.12
2023-05-14T04:42:26.707Z,118.12
2023-05-14T04:43:26.616Z,123.75
2023-05-14T04:44:26.616Z,123.75
2023-05-14T04:45:26.622Z,123.75
2023-05-14T04:46:26.630Z,123.75
2023-05-14T04:47:26.639Z,123.75
2023-05-14T04:48:26.559Z,129.38
2023-05-14T04:49:26.557Z,129.38
2023-05-14T04:50:26.533Z,129.38
2023-05-14T04:51:26.586Z,135.00
2023-05-14T04:52:26.532Z,135.00
2023-05-14T04:53:26.496Z,146.25
2023-05-14T04:54:26.599Z,185.62
2023-05-14T04:55:26.487Z,191.25
2023-05-14T04:56:26.502Z,163.12
2023-05-14T04:57:26.456Z,168.75
2023-05-14T04:58:26.464Z,202.50
2023-05-14T04:59:26.433Z,196.88
2023-05-14T05:00:26.679Z,191.25
2023-05-14T05:01:26.429Z,241.88
2023-05-14T05:02:26.438Z,275.62
2023-05-14T05:03:26.492Z,281.25
2023-05-14T05:04:26.411Z,281.25
2023-05-14T05:05:26.374Z,286.88
2023-05-14T05:06:26.359Z,292.50
2023-05-14T05:07:26.357Z,292.50
2023-05-14T05:08:26.368Z,298.12
2023-05-14T05:09:26.353Z,303.75
2023-05-14T05:27:31.074Z,343.12
2023-05-14T05:28:31.374Z,348.75
2023-05-14T05:29:31.054Z,371.25
2023-05-14T05:30:31.003Z,371.25
2023-05-14T05:31:31.081Z,382.50
2023-05-14T05:32:31.026Z,371.25
2023-05-14T05:33:30.970Z,348.75
2023-05-14T05:34:30.958Z,326.25
2023-05-14T05:35:30.951Z,298.12
2023-05-14T05:36:30.954Z,292.50
2023-05-14T05:37:30.984Z,371.25
2023-05-14T05:38:30.959Z,331.88
2023-05-14T05:39:30.908Z,320.62
2023-05-14T05:40:30.892Z,354.38
2023-05-14T05:41:30.914Z,365.62
2023-05-14T05:42:30.924Z,388.12
2023-05-14T05:43:30.898Z,393.75
2023-05-14T05:44:30.862Z,382.50
2023-05-14T05:45:30.850Z,382.50
2023-05-14T05:46:30.836Z,393.75
2023-05-14T05:47:30.878Z,399.38
2023-05-14T05:48:30.822Z,410.62
2023-05-14T05:49:30.794Z,410.62
2023-05-14T05:50:30.793Z,405.00
2023-05-14T05:51:30.769Z,410.62
2023-05-14T05:52:30.769Z,416.25
2023-05-14T05:53:30.755Z,421.88
2023-05-14T05:54:30.741Z,421.88
2023-05-14T05:55:30.774Z,433.12
2023-05-14T05:56:30.734Z,438.75
2023-05-14T05:57:30.703Z,444.38
2023-05-14T05:58:30.718Z,450.00
2023-05-14T05:59:30.729Z,455.62
2023-05-14T06:00:30.687Z,455.62
2023-05-14T06:01:30.662Z,466.88
2023-05-14T06:02:30.877Z,466.88
2023-05-14T06:03:30.641Z,466.88
2023-05-14T06:04:30.642Z,472.50
2023-05-14T06:05:30.689Z,478.12
2023-05-14T06:06:30.629Z,483.75
2023-05-14T06:07:30.609Z,489.38
2023-05-14T06:08:30.617Z,489.38
2023-05-14T06:09:30.598Z,478.12
2023-05-14T06:10:30.578Z,438.75
2023-05-14T06:11:30.584Z,438.75
2023-05-14T06:12:30.553Z,438.75
2023-05-14T06:13:30.550Z,455.62
2023-05-14T06:14:30.519Z,438.75
2023-05-14T06:15:30.557Z,416.25
2023-05-14T06:16:30.551Z,450.00
2023-05-14T06:17:30.532Z,444.38
2023-05-14T06:18:30.527Z,399.38
2023-05-14T06:19:30.468Z,382.50
2023-05-14T06:20:30.454Z,365.62
2023-05-14T06:21:30.461Z,393.75
2023-05-14T06:22:30.458Z,416.25
2023-05-14T06:23:30.475Z,410.62
2023-05-14T06:24:30.405Z,416.25
2023-05-14T06:25:30.414Z,421.88
2023-05-14T06:26:30.419Z,388.12
2023-05-14T06:27:30.403Z,388.12
2023-05-14T06:28:30.387Z,365.62
2023-05-14T06:29:30.368Z,343.12
2023-05-14T06:30:30.339Z,337.50
2023-05-14T06:31:30.471Z,337.50
2023-05-14T06:32:30.389Z,337.50
2023-05-14T06:33:30.325Z,337.50
2023-05-14T06:34:30.308Z,343.12
2023-05-14T06:35:30.293Z,343.12
2023-05-14T06:36:30.276Z,354.38
2023-05-14T06:37:30.278Z,360.00
2023-05-14T06:38:30.267Z,365.62
2023-05-14T06:39:30.266Z,365.62
2023-05-14T06:40:30.238Z,365.62
2023-05-14T06:41:30.233Z,365.62
2023-05-14T06:42:30.214Z,365.62
2023-05-14T06:43:30.221Z,371.25
2023-05-14T06:44:30.227Z,371.25
2023-05-14T06:45:32.374Z,371.25
2023-05-14T06:46:30.176Z,376.88
2023-05-14T06:47:30.260Z,376.88
2023-05-14T06:48:30.282Z,382.50
2023-05-14T06:49:30.141Z,410.62
2023-05-14T06:50:30.121Z,433.12
2023-05-14T06:51:30.125Z,433.12
2023-05-14T06:52:30.097Z,421.88
2023-05-14T06:53:30.106Z,438.75
2023-05-14T06:54:30.079Z,444.38
2023-05-14T06:55:30.070Z,455.62
2023-05-14T06:56:30.057Z,450.00
2023-05-14T06:57:30.130Z,472.50
2023-05-14T06:58:30.051Z,489.38
2023-05-14T06:59:30.053Z,444.38
2023-05-14T07:00:30.026Z,433.12
2023-05-14T07:01:30.025Z,421.88
2023-05-14T07:02:30.075Z,405.00
2023-05-14T07:03:30.029Z,393.75
2023-05-14T07:04:30.021Z,393.75
2023-05-14T07:05:29.961Z,405.00
2023-05-14T07:06:29.946Z,399.38
2023-05-14T07:07:29.935Z,416.25
2023-05-14T07:08:29.921Z,399.38
2023-05-14T07:09:29.936Z,393.75
2023-05-14T07:10:29.920Z,421.88
2023-05-14T07:11:29.935Z,421.88
2023-05-14T07:12:29.879Z,466.88
2023-05-14T07:13:29.907Z,427.50
2023-05-14T07:14:29.897Z,416.25
2023-05-14T07:15:29.858Z,478.12
2023-05-14T07:16:29.862Z,517.50
2023-05-14T07:17:29.936Z,506.25
2023-05-14T07:18:29.877Z,545.62
2023-05-14T07:19:29.833Z,506.25
2023-05-14T07:20:29.810Z,489.38
2023-05-14T07:21:29.789Z,506.25
2023-05-14T07:22:29.825Z,545.62
2023-05-14T07:23:29.765Z,545.62
2023-05-14T07:24:29.754Z,556.88
2023-05-14T07:25:29.740Z,562.50
2023-05-14T07:26:29.741Z,528.75
2023-05-14T07:27:36.729Z,562.50
2023-05-14T07:28:29.719Z,579.38
2023-05-14T07:29:29.698Z,590.62
2023-05-14T07:30:29.685Z,613.12
2023-05-14T07:31:29.713Z,618.75
2023-05-14T07:32:29.666Z,618.75
2023-05-14T07:33:29.661Z,607.50
2023-05-14T07:34:29.639Z,624.38
2023-05-14T07:35:29.699Z,635.62
2023-05-14T07:36:29.633Z,613.12
2023-05-14T07:37:29.611Z,652.50
2023-05-14T07:38:29.645Z,635.62
2023-05-14T07:39:29.589Z,641.25
2023-05-14T07:40:29.585Z,630.00
2023-05-14T07:41:29.572Z,663.75
2023-05-14T07:42:36.360Z,669.38
2023-05-14T07:43:29.567Z,675.00
2023-05-14T07:44:29.560Z,663.75
2023-05-14T07:45:29.527Z,652.50
2023-05-14T07:46:29.558Z,630.00
2023-05-14T07:47:30.395Z,585.00
2023-05-14T07:48:29.518Z,697.50
2023-05-14T07:49:29.485Z,641.25
2023-05-14T07:50:29.464Z,663.75
2023-05-14T07:51:29.487Z,731.25
2023-05-14T07:52:29.488Z,725.62
2023-05-14T07:53:29.436Z,759.38
2023-05-14T07:54:29.421Z,742.50
2023-05-14T07:55:29.450Z,748.12
2023-05-14T07:56:29.400Z,770.62
2023-05-14T07:57:29.411Z,781.88
2023-05-14T07:58:29.399Z,781.88
2023-05-14T07:59:29.371Z,776.25
2023-05-14T08:00:29.357Z,770.62
2023-05-14T08:01:29.360Z,753.75
2023-05-14T08:02:29.428Z,776.25
2023-05-14T08:03:29.400Z,787.50
2023-05-14T08:04:29.505Z,787.50
2023-05-14T08:05:29.332Z,793.12
2023-05-14T08:06:29.291Z,793.12
2023-05-14T08:07:29.306Z,759.38
2023-05-14T08:08:29.271Z,686.25
2023-05-14T08:09:29.275Z,765.00
2023-05-14T08:10:29.523Z,759.38
2023-05-14T08:11:29.240Z,787.50
2023-05-14T08:12:29.233Z,793.12
2023-05-14T08:13:29.217Z,793.12
2023-05-14T08:14:29.230Z,787.50
2023-05-14T08:15:29.205Z,781.88
2023-05-14T08:16:29.217Z,770.62
2023-05-14T08:17:29.199Z,787.50
2023-05-14T08:18:29.205Z,793.12
2023-05-14T08:19:29.155Z,793.12
2023-05-14T08:20:29.180Z,798.75
2023-05-14T08:21:29.168Z,798.75
2023-05-14T08:22:29.129Z,798.75
2023-05-14T08:23:29.144Z,798.75
2023-05-14T08:24:29.102Z,798.75
2023-05-14T08:25:29.091Z,798.75
2023-05-14T08:26:29.079Z,798.75
2023-05-14T08:27:29.094Z,798.75
2023-05-14T08:28:29.076Z,798.75
2023-05-14T08:29:29.059Z,804.38
2023-05-14T08:30:29.100Z,804.38
2023-05-14T08:31:29.187Z,804.38
2023-05-14T08:32:29.057Z,804.38
2023-05-14T08:33:29.032Z,798.75
2023-05-14T08:34:28.990Z,753.75
2023-05-14T08:35:28.985Z,787.50
2023-05-14T08:36:28.978Z,793.12
2023-05-14T08:37:28.976Z,781.88
2023-05-14T08:38:28.959Z,787.50
2023-05-14T08:39:28.960Z,787.50
2023-05-14T08:40:28.939Z,793.12
2023-05-14T08:41:28.935Z,793.12
2023-05-14T08:42:28.917Z,793.12
2023-05-14T08:43:28.911Z,793.12
2023-05-14T08:44:28.896Z,793.12
2023-05-14T08:45:28.877Z,798.75
2023-05-14T08:46:28.859Z,798.75
2023-05-14T08:47:28.867Z,798.75
2023-05-14T08:48:28.979Z,804.38
2023-05-14T08:49:28.836Z,804.38
2023-05-14T08:50:29.281Z,810.00
2023-05-14T08:51:28.808Z,810.00
2023-05-14T08:52:28.792Z,815.62
2023-05-14T08:53:28.784Z,815.62
2023-05-14T08:54:28.782Z,810.00
2023-05-14T08:55:28.804Z,815.62
2023-05-14T08:56:28.758Z,810.00
2023-05-14T08:57:28.750Z,815.62
2023-05-14T08:58:28.732Z,815.62
2023-05-14T08:59:28.715Z,821.25
2023-05-14T09:00:28.717Z,821.25
2023-05-14T09:01:28.782Z,821.25
2023-05-14T09:02:28.714Z,815.62
2023-05-14T09:03:28.696Z,810.00
2023-05-14T09:04:28.668Z,810.00
2023-05-14T09:05:28.649Z,821.25
2023-05-14T09:06:28.664Z,821.25
2023-05-14T09:07:28.647Z,826.88
2023-05-14T09:08:28.705Z,832.50
2023-05-14T09:09:28.633Z,826.88
2023-05-14T09:10:28.620Z,821.25
2023-05-14T09:11:28.609Z,826.88
2023-05-14T09:12:28.590Z,826.88
2023-05-14T09:13:28.591Z,826.88
2023-05-14T09:14:28.615Z,798.75
2023-05-14T09:15:28.579Z,720.00
2023-05-14T09:16:28.590Z,815.62
2023-05-14T09:17:28.580Z,826.88
2023-05-14T09:18:28.602Z,815.62
2023-05-14T09:19:28.507Z,815.62
2023-05-14T09:20:28.987Z,815.62
2023-05-14T09:21:28.482Z,810.00
2023-05-14T09:22:28.541Z,810.00
2023-05-14T09:23:28.481Z,810.00
2023-05-14T09:24:28.478Z,821.25
2023-05-14T09:25:28.437Z,832.50
2023-05-14T09:26:28.434Z,770.62
2023-05-14T09:27:28.560Z,838.12
2023-05-14T09:28:35.921Z,838.12
2023-05-14T09:29:28.417Z,826.88
2023-05-14T09:30:28.384Z,826.88
2023-05-14T09:31:28.426Z,866.25
2023-05-14T09:32:28.385Z,877.50
2023-05-14T09:33:28.363Z,877.50
2023-05-14T09:34:28.340Z,877.50
2023-05-14T09:35:28.385Z,900.00
2023-05-14T09:36:28.324Z,883.12
2023-05-14T09:37:28.364Z,877.50
2023-05-14T09:38:28.299Z,877.50
2023-05-14T09:39:28.284Z,877.50
2023-05-14T09:40:28.668Z,888.75
2023-05-14T09:41:28.275Z,894.38
2023-05-14T09:42:28.263Z,900.00
2023-05-14T09:43:28.280Z,900.00
2023-05-14T09:44:28.255Z,900.00
2023-05-14T09:45:28.244Z,894.38
2023-05-14T09:46:28.240Z,894.38
2023-05-14T09:47:28.260Z,630.00
2023-05-14T09:48:28.233Z,646.88
2023-05-14T09:49:28.176Z,911.25
2023-05-14T09:50:28.218Z,905.62
2023-05-14T09:51:28.168Z,888.75
2023-05-14T09:52:28.164Z,888.75
2023-05-14T09:53:28.134Z,888.75
2023-05-14T09:54:28.177Z,894.38
2023-05-14T09:55:28.127Z,900.00
2023-05-14T09:56:28.137Z,916.88
2023-05-14T09:57:28.093Z,810.00
2023-05-14T09:58:28.087Z,613.12
2023-05-14T09:59:28.107Z,590.62
2023-05-14T10:00:28.061Z,804.38
2023-05-14T10:01:28.091Z,905.62
2023-05-14T10:02:28.102Z,905.62
2023-05-14T10:03:28.040Z,911.25
2023-05-14T10:04:28.121Z,613.12
2023-05-14T10:05:28.027Z,590.62
2023-05-14T10:06:28.058Z,916.88
2023-05-14T10:07:28.004Z,568.12
2023-05-14T10:08:27.991Z,545.62
2023-05-14T10:09:27.982Z,534.38
2023-05-14T10:10:28.249Z,545.62
2023-05-14T10:11:27.962Z,551.25
2023-05-14T10:12:27.930Z,562.50
2023-05-14T10:13:27.921Z,641.25
2023-05-14T10:14:27.929Z,596.25
2023-05-14T10:15:27.924Z,939.38
2023-05-14T10:16:27.919Z,922.50
2023-05-14T10:17:27.899Z,911.25
2023-05-14T10:18:27.913Z,911.25
2023-05-14T10:19:27.995Z,905.62
2023-05-14T10:20:27.850Z,905.62
2023-05-14T10:21:27.846Z,905.62
2023-05-14T10:22:27.822Z,900.00
2023-05-14T10:23:27.822Z,905.62
2023-05-14T10:24:27.814Z,911.25
2023-05-14T10:25:27.803Z,888.75
2023-05-14T10:26:27.791Z,624.38
2023-05-14T10:27:27.778Z,635.62
2023-05-14T10:28:27.779Z,641.25
2023-05-14T10:29:27.748Z,652.50
2023-05-14T10:30:27.811Z,641.25
2023-05-14T10:31:27.821Z,663.75
2023-05-14T10:32:27.775Z,663.75
2023-05-14T10:33:27.751Z,646.88
2023-05-14T10:34:27.696Z,675.00
2023-05-14T10:35:27.684Z,911.25
2023-05-14T10:36:27.692Z,669.38
2023-05-14T10:37:27.719Z,669.38
2023-05-14T10:38:27.664Z,675.00
2023-05-14T10:39:27.645Z,680.62
2023-05-14T10:40:27.645Z,680.62
2023-05-14T10:41:27.625Z,810.00
2023-05-14T10:42:27.666Z,849.38
2023-05-14T10:43:27.602Z,759.38
2023-05-14T10:44:27.589Z,883.12
2023-05-14T10:45:27.585Z,703.12
2023-05-14T10:46:27.621Z,703.12
2023-05-14T10:47:27.594Z,759.38
2023-05-14T10:48:27.549Z,720.00
2023-05-14T10:49:42.393Z,697.50
2023-05-14T10:50:27.582Z,804.38
2023-05-14T10:51:27.532Z,860.62
2023-05-14T10:52:27.518Z,798.75
2023-05-14T10:53:27.501Z,832.50
2023-05-14T10:54:27.492Z,748.12
2023-05-14T10:55:27.484Z,933.75
2023-05-14T10:56:27.460Z,703.12
2023-05-14T10:57:27.516Z,714.38
2023-05-14T10:58:27.446Z,753.75
2023-05-14T10:59:27.438Z,871.88
2023-05-14T11:00:27.433Z,866.25
2023-05-14T11:01:27.431Z,877.50
2023-05-14T11:02:27.447Z,877.50
2023-05-14T11:03:27.428Z,838.12
2023-05-14T11:04:27.375Z,770.62
2023-05-14T11:05:27.429Z,922.50
2023-05-14T11:06:27.366Z,894.38
2023-05-14T11:07:27.376Z,810.00
2023-05-14T11:08:29.285Z,697.50
2023-05-14T11:09:27.319Z,759.38
2023-05-14T11:10:27.323Z,821.25
2023-05-14T11:11:27.354Z,888.75
2023-05-14T11:12:27.314Z,995.62
2023-05-14T11:13:27.275Z,1023.75
2023-05-14T11:14:27.267Z,1040.62
2023-05-14T11:15:27.303Z,793.12
2023-05-14T11:16:27.318Z,708.75
2023-05-14T11:17:27.280Z,669.38
2023-05-14T11:18:27.253Z,652.50
2023-05-14T11:19:27.238Z,635.62
2023-05-14T11:20:27.352Z,618.75
2023-05-14T11:21:27.257Z,607.50
2023-05-14T11:22:27.197Z,601.88
2023-05-14T11:23:27.174Z,590.62
2023-05-14T11:24:28.015Z,590.62
2023-05-14T11:25:27.149Z,630.00
2023-05-14T11:26:27.193Z,765.00
2023-05-14T11:27:27.138Z,489.38
2023-05-14T11:28:27.124Z,444.38
2023-05-14T11:29:35.650Z,405.00
2023-05-14T11:30:27.098Z,371.25
2023-05-14T11:31:27.107Z,348.75
2023-05-14T11:32:27.089Z,326.25
2023-05-14T11:33:27.064Z,309.38
2023-05-14T11:34:27.069Z,286.88
2023-05-14T11:35:27.060Z,264.38
2023-05-14T11:36:27.090Z,247.50
2023-05-14T11:37:27.024Z,241.88
2023-05-14T11:38:27.056Z,225.00
2023-05-14T11:39:27.000Z,219.38
2023-05-14T11:40:27.035Z,213.75
2023-05-14T11:41:27.030Z,208.12
2023-05-14T11:42:26.969Z,202.50
2023-05-14T11:43:26.977Z,196.88
2023-05-14T11:44:26.956Z,191.25
2023-05-14T11:45:26.947Z,191.25
2023-05-14T11:46:26.968Z,196.88
2023-05-14T11:47:26.966Z,196.88
2023-05-14T11:48:26.918Z,202.50
2023-05-14T11:49:26.923Z,202.50
2023-05-14T11:50:27.125Z,208.12
2023-05-14T11:51:26.937Z,213.75
2023-05-14T11:52:26.879Z,213.75
2023-05-14T11:53:26.898Z,219.38
2023-05-14T11:54:26.845Z,219.38
2023-05-14T11:55:26.861Z,219.38
2023-05-14T11:56:26.836Z,219.38
2023-05-14T11:57:26.809Z,225.00
2023-05-14T11:58:26.831Z,230.62
2023-05-14T11:59:26.786Z,230.62
2023-05-14T12:00:26.895Z,230.62
2023-05-14T12:01:26.776Z,230.62
2023-05-14T12:02:26.798Z,236.25
2023-05-14T12:03:27.109Z,236.25
2023-05-14T12:04:26.742Z,241.88
2023-05-14T12:05:26.728Z,247.50
2023-05-14T12:06:26.765Z,253.12
2023-05-14T12:07:26.713Z,258.75
2023-05-14T12:08:26.686Z,258.75
2023-05-14T12:09:26.683Z,264.38
2023-05-14T12:10:26.935Z,270.00
2023-05-14T12:11:26.649Z,270.00
2023-05-14T12:12:26.642Z,264.38
2023-05-14T12:13:26.649Z,264.38
2023-05-14T12:14:26.619Z,264.38
2023-05-14T12:15:26.620Z,264.38
2023-05-14T12:16:26.644Z,270.00
2023-05-14T12:17:26.637Z,281.25
2023-05-14T12:18:26.632Z,286.88
2023-05-14T12:19:26.677Z,292.50
2023-05-14T12:20:26.677Z,298.12
2023-05-14T12:21:26.549Z,303.75
2023-05-14T12:22:26.545Z,309.38
2023-05-14T12:23:26.539Z,315.00
2023-05-14T12:24:26.512Z,320.62
2023-05-14T12:25:26.511Z,326.25
2023-05-14T12:26:26.489Z,337.50
2023-05-14T12:27:26.518Z,337.50
2023-05-14T12:28:26.475Z,343.12
2023-05-14T12:29:26.454Z,348.75
2023-05-14T12:30:26.442Z,354.38
2023-05-14T12:31:26.507Z,360.00
2023-05-14T12:32:26.432Z,365.62
2023-05-14T12:33:26.413Z,371.25
2023-05-14T12:34:26.403Z,376.88
2023-05-14T12:35:26.641Z,382.50
2023-05-14T12:36:26.385Z,388.12
2023-05-14T12:37:26.370Z,399.38
2023-05-14T12:38:26.359Z,405.00
2023-05-14T12:39:26.383Z,410.62
2023-05-14T12:40:26.570Z,416.25
2023-05-14T12:41:26.320Z,427.50
2023-05-14T12:42:26.329Z,438.75
2023-05-14T12:43:26.310Z,450.00
2023-05-14T12:44:26.302Z,461.25
2023-05-14T12:45:26.375Z,472.50
2023-05-14T12:46:26.313Z,483.75
2023-05-14T12:47:26.369Z,489.38
2023-05-14T12:48:26.249Z,500.62
2023-05-14T12:49:26.238Z,506.25
2023-05-14T12:50:26.541Z,511.88
2023-05-14T12:51:26.230Z,511.88
2023-05-14T12:53:27.222Z,517.50
2023-05-14T12:54:26.187Z,517.50
2023-05-14T12:55:26.201Z,517.50
2023-05-14T12:56:26.174Z,517.50
2023-05-14T12:57:26.186Z,523.12
2023-05-14T12:58:26.154Z,523.12
2023-05-14T12:59:26.134Z,523.12
2023-05-14T13:00:26.342Z,523.12
2023-05-14T13:01:26.161Z,528.75
2023-05-14T13:02:26.165Z,528.75
2023-05-14T13:03:26.094Z,528.75
2023-05-14T13:04:26.111Z,534.38